Home   Weather   USA   Milwaukee   Past weeks
Flag for USA

Past Weather in Milwaukee, Wisconsin, USA — Yesterday and Last 2 Weeks

Currently: 36 °F. Clear. (Weather station: Milwaukee / Timmerman, USA). See more current weather

Past Weather in Milwaukee — Graph

°F

Milwaukee Temperature Yesterday

Maximum temperature yesterday: 61 °F (at 1:45 pm)
Minimum temperature yesterday: 41 °F (at 11:35 pm)
Average temperature yesterday: 49 °F

High & Low Weather Summary for the Past Weeks

 TemperatureHumidityPressure
High79 °F (Apr 6, 2:45 pm)94% (Apr 10, 7:45 am)30.54 "Hg (Apr 10, 7:45 am)
Low21 °F (Apr 1, 4:35 am)16% (Apr 4, 3:45 pm)29.30 "Hg (Apr 11, 1:55 am)
Average48 °F60%29.89 "Hg
* Reported Mar 29 4:15 am — Apr 13 4:55 am, Milwaukee. Weather by CustomWeather, © 2021

Note: Actual official high and low records may vary slightly from our data, if they occured in-between our weather recording intervals... More about our weather records

Milwaukee Weather History for the Previous 24 Hours

Scroll right to see more
 ConditionsComfort  
Time TempWeatherWind HumidityBarometerVisibility
4:55 am
Tue, Apr 13
36 °FClear.5 mph87%29.97 "Hg10 mi
4:35 am36 °FClear.3 mph87%29.96 "Hg10 mi
4:15 am37 °FClear.3 mph81%29.96 "Hg10 mi
3:55 am36 °FClear.No wind87%29.97 "Hg10 mi
3:35 am36 °FClear.5 mph87%29.97 "Hg10 mi
3:15 am36 °FClear.No wind87%29.97 "Hg10 mi
2:55 am37 °FClear.No wind81%29.97 "Hg10 mi
2:35 am37 °FClear.No wind81%29.97 "Hg10 mi
2:15 am37 °FClear.No wind81%29.97 "Hg10 mi
1:55 am39 °FClear.No wind75%29.96 "Hg10 mi
1:35 am39 °FClear.No wind75%29.96 "Hg10 mi
1:15 am39 °FClear.No wind75%29.96 "Hg10 mi
12:55 am39 °FClear.No wind75%29.96 "Hg10 mi
12:35 am41 °FClear.5 mph70%29.95 "Hg10 mi
12:15 am41 °FClear.5 mph70%29.95 "Hg10 mi
11:55 pm
Mon, Apr 12
41 °FClear.5 mph70%29.95 "Hg10 mi
11:35 pm41 °FClear.5 mph70%29.95 "Hg10 mi
11:15 pm43 °FClear.5 mph66%29.94 "Hg10 mi
10:55 pm43 °FClear.3 mph66%29.94 "Hg10 mi
10:35 pm45 °FClear.5 mph61%29.93 "Hg10 mi
10:15 pm43 °FClear.3 mph66%29.92 "Hg10 mi
9:55 pm45 °FClear.5 mph61%29.92 "Hg10 mi
9:35 pm45 °FClear.5 mph61%29.91 "Hg10 mi
9:15 pm45 °FClear.5 mph61%29.91 "Hg10 mi
8:55 pm46 °FClear.10 mph57%29.91 "Hg10 mi
7:55 pm50 °FPassing clouds.9 mph50%29.88 "Hg10 mi
6:45 pm52 °FScattered clouds.17 mph44%29.85 "Hg10 mi
5:45 pm55 °FBroken clouds.22 mph44%29.82 "Hg10 mi
4:45 pm59 °FScattered clouds.23 mph39%29.79 "Hg10 mi
3:45 pm57 °FScattered clouds.17 mph48%29.78 "Hg10 mi
2:45 pm61 °FBroken clouds.15 mph42%29.75 "Hg10 mi
1:45 pm61 °FBroken clouds.16 mph42%29.75 "Hg10 mi
12:45 pm59 °FPartly sunny.15 mph48%29.73 "Hg10 mi
11:45 am55 °FPartly sunny.12 mph63%29.73 "Hg10 mi
10:45 am54 °FMostly cloudy.15 mph77%29.72 "Hg10 mi
9:45 am52 °FMostly cloudy.9 mph77%29.70 "Hg10 mi
9:15 am50 °FOvercast.10 mph88%29.69 "Hg10 mi
8:45 am48 °FMostly cloudy.9 mph94%29.69 "Hg7 mi
7:45 am48 °FMostly cloudy.7 mph87%29.68 "Hg7 mi
7:15 am46 °FFog.5 mph93%29.67 "Hg2 mi
6:55 am48 °FFog.8 mph87%29.66 "Hg3 mi
6:35 am48 °FFog.6 mph87%29.66 "Hg5 mi
6:15 am48 °FCloudy.7 mph87%29.65 "Hg7 mi
Weather by CustomWeather, © 2021

See weather overview